Time,TemperatureF,DewpointF,PressureIn,WindDirection,WindDirectionDegrees,WindSpeedMPH,WindSpeedGustMPH,Humidity,HourlyPrecipIn,Conditions,Clouds,dailyrainin,SolarRadiationWatts/m^2,SoftwareType,DateUTC
2013-06-04 00:22:00,57.0,41.0,-100.00,ENE,74,4.0,11.0,55,0.00,,,0.00,1.000000,,2013-06-04 07:22:00,
2013-06-04 00:32:00,57.0,41.0,-100.00,ENE,74,4.0,11.0,55,0.00,,,0.00,1.000000,,2013-06-04 07:32:00,
2013-06-04 00:42:00,57.0,41.0,-100.00,ENE,74,4.0,11.0,55,0.00,,,0.00,1.000000,,2013-06-04 07:42:00,
2013-06-04 00:52:00,57.0,41.0,-100.00,ENE,74,4.0,11.0,55,0.00,,,0.00,1.000000,,2013-06-04 07:52:00,
2013-06-04 01:22:00,56.0,42.0,-100.00,NE,40,6.0,10.0,60,0.00,,,0.00,1.000000,,2013-06-04 08:22:00,
2013-06-04 01:32:00,56.0,42.0,-100.00,NE,40,6.0,10.0,60,0.00,,,0.00,1.000000,,2013-06-04 08:32:00,
2013-06-04 01:42:00,56.0,42.0,-100.00,NE,40,6.0,10.0,60,0.00,,,0.00,1.000000,,2013-06-04 08:42:00,
2013-06-04 01:52:00,56.0,42.0,-100.00,NE,40,6.0,10.0,60,0.00,,,0.00,1.000000,,2013-06-04 08:52:00,
2013-06-04 02:12:00,54.0,43.0,-100.00,NE,41,4.0,8.0,66,0.00,,,0.00,1.000000,,2013-06-04 09:12:00,
2013-06-04 02:22:00,54.0,43.0,-100.00,NE,41,4.0,8.0,66,0.00,,,0.00,1.000000,,2013-06-04 09:22:00,
2013-06-04 02:32:00,54.0,43.0,-100.00,NE,41,4.0,8.0,66,0.00,,,0.00,1.000000,,2013-06-04 09:32:00,
2013-06-04 02:42:00,54.0,43.0,-100.00,NE,41,4.0,8.0,66,0.00,,,0.00,1.000000,,2013-06-04 09:42:00,
2013-06-04 02:53:00,54.0,43.0,-100.00,NE,41,4.0,8.0,66,0.00,,,0.00,1.000000,,2013-06-04 09:53:00,
2013-06-04 03:22:00,52.0,41.0,-100.00,NE,49,6.0,10.0,66,0.00,,,0.00,1.000000,,2013-06-04 10:22:00,
2013-06-04 03:32:00,52.0,41.0,-100.00,NE,49,6.0,10.0,66,0.00,,,0.00,1.000000,,2013-06-04 10:32:00,
2013-06-04 03:42:00,52.0,41.0,-100.00,NE,49,6.0,10.0,66,0.00,,,0.00,1.000000,,2013-06-04 10:42:00,
2013-06-04 03:52:00,52.0,41.0,-100.00,NE,49,6.0,10.0,66,0.00,,,0.00,1.000000,,2013-06-04 10:52:00,
2013-06-04 04:22:00,51.0,40.0,-100.00,NE,39,6.0,9.0,67,0.00,,,0.00,1.000000,,2013-06-04 11:22:00,
2013-06-04 04:32:00,51.0,40.0,-100.00,NE,39,6.0,9.0,67,0.00,,,0.00,1.000000,,2013-06-04 11:32:00,
2013-06-04 04:42:00,51.0,40.0,-100.00,NE,39,6.0,9.0,67,0.00,,,0.00,1.000000,,2013-06-04 11:42:00,
2013-06-04 04:52:00,51.0,40.0,-100.00,NE,39,6.0,9.0,67,0.00,,,0.00,1.000000,,2013-06-04 11:52:00,
2013-06-04 05:22:00,47.0,40.0,-100.00,ENE,64,5.0,9.0,77,0.00,,,0.00,1.000000,,2013-06-04 12:22:00,
2013-06-04 05:32:00,47.0,40.0,-100.00,ENE,64,5.0,9.0,77,0.00,,,0.00,1.000000,,2013-06-04 12:32:00,
2013-06-04 05:42:00,47.0,40.0,-100.00,ENE,64,5.0,9.0,77,0.00,,,0.00,1.000000,,2013-06-04 12:42:00,
2013-06-04 05:52:00,47.0,40.0,-100.00,ENE,64,5.0,9.0,77,0.00,,,0.00,1.000000,,2013-06-04 12:52:00,
2013-06-04 06:22:00,47.0,39.0,-100.00,NE,41,5.0,6.0,75,0.00,,,0.00,6.000000,,2013-06-04 13:22:00,
2013-06-04 06:32:00,47.0,39.0,-100.00,NE,41,5.0,6.0,75,0.00,,,0.00,6.000000,,2013-06-04 13:32:00,
2013-06-04 06:42:00,47.0,39.0,-100.00,NE,41,5.0,6.0,75,0.00,,,0.00,6.000000,,2013-06-04 13:42:00,
2013-06-04 06:52:00,47.0,39.0,-100.00,NE,41,5.0,6.0,75,0.00,,,0.00,6.000000,,2013-06-04 13:52:00,
2013-06-04 07:22:00,52.0,42.0,-100.00,ENE,58,6.0,9.0,68,0.00,,,0.00,106.000000,,2013-06-04 14:22:00,
2013-06-04 07:32:00,52.0,42.0,-100.00,ENE,58,6.0,9.0,68,0.00,,,0.00,106.000000,,2013-06-04 14:32:00,
2013-06-04 07:42:00,52.0,42.0,-100.00,ENE,58,6.0,9.0,68,0.00,,,0.00,106.000000,,2013-06-04 14:42:00,
2013-06-04 07:52:00,52.0,42.0,-100.00,ENE,58,6.0,9.0,68,0.00,,,0.00,106.000000,,2013-06-04 14:52:00,
2013-06-04 08:22:00,56.0,40.0,-100.00,NE,52,8.0,13.0,54,0.00,,,0.00,290.000000,,2013-06-04 15:22:00,
2013-06-04 08:33:00,56.0,40.0,-100.00,NE,52,8.0,13.0,54,0.00,,,0.00,290.000000,,2013-06-04 15:33:00,
2013-06-04 08:42:00,56.0,40.0,-100.00,NE,52,8.0,13.0,54,0.00,,,0.00,290.000000,,2013-06-04 15:42:00,
2013-06-04 08:53:00,56.0,40.0,-100.00,NE,52,8.0,13.0,54,0.00,,,0.00,290.000000,,2013-06-04 15:53:00,
2013-06-04 09:22:00,61.0,38.0,-100.00,NE,56,7.0,13.0,43,0.00,,,0.00,484.000000,,2013-06-04 16:22:00,
2013-06-04 09:33:00,61.0,38.0,-100.00,NE,56,7.0,13.0,43,0.00,,,0.00,484.000000,,2013-06-04 16:33:00,
2013-06-04 09:42:00,61.0,38.0,-100.00,NE,56,7.0,13.0,43,0.00,,,0.00,484.000000,,2013-06-04 16:42:00,
2013-06-04 09:52:00,61.0,38.0,-100.00,NE,56,7.0,13.0,43,0.00,,,0.00,484.000000,,2013-06-04 16:52:00,
2013-06-04 10:23:00,66.0,38.0,-100.00,NE,36,6.0,11.0,35,0.00,,,0.00,668.000000,,2013-06-04 17:23:00,
2013-06-04 10:32:00,66.0,38.0,-100.00,NE,36,6.0,11.0,35,0.00,,,0.00,668.000000,,2013-06-04 17:32:00,
2013-06-04 10:42:00,66.0,38.0,-100.00,NE,36,6.0,11.0,35,0.00,,,0.00,668.000000,,2013-06-04 17:42:00,
2013-06-04 10:52:00,66.0,38.0,-100.00,NE,36,6.0,11.0,35,0.00,,,0.00,668.000000,,2013-06-04 17:52:00,
2013-06-04 11:22:00,71.0,39.0,-100.00,NNE,13,5.0,9.0,31,0.00,,,0.00,829.000000,,2013-06-04 18:22:00,
2013-06-04 11:32:00,71.0,39.0,-100.00,NNE,13,5.0,9.0,31,0.00,,,0.00,829.000000,,2013-06-04 18:32:00,
2013-06-04 11:42:00,71.0,39.0,-100.00,NNE,13,5.0,9.0,31,0.00,,,0.00,829.000000,,2013-06-04 18:42:00,
2013-06-04 11:52:00,71.0,39.0,-100.00,NNE,13,5.0,9.0,31,0.00,,,0.00,829.000000,,2013-06-04 18:52:00,
2013-06-04 12:22:00,74.0,37.0,-100.00,North,350,4.0,9.0,26,0.00,,,0.00,948.000000,,2013-06-04 19:22:00,
2013-06-04 12:42:00,74.0,37.0,-100.00,North,350,4.0,9.0,26,0.00,,,0.00,948.000000,,2013-06-04 19:42:00,
2013-06-04 12:52:00,74.0,37.0,-100.00,North,350,4.0,9.0,26,0.00,,,0.00,948.000000,,2013-06-04 19:52:00,
2013-06-04 13:22:00,76.0,41.0,-100.00,WSW,250,8.0,14.0,28,0.00,,,0.00,1007.000000,,2013-06-04 20:22:00,
2013-06-04 13:32:00,76.0,41.0,-100.00,WSW,250,8.0,14.0,28,0.00,,,0.00,1007.000000,,2013-06-04 20:32:00,
2013-06-04 13:42:00,76.0,41.0,-100.00,WSW,250,8.0,14.0,28,0.00,,,0.00,1007.000000,,2013-06-04 20:42:00,
2013-06-04 13:52:00,76.0,41.0,-100.00,WSW,250,8.0,14.0,28,0.00,,,0.00,1007.000000,,2013-06-04 20:52:00,
2013-06-04 14:22:00,78.0,37.0,-100.00,West,266,8.0,14.0,23,0.00,,,0.00,1025.000000,,2013-06-04 21:22:00,
2013-06-04 14:33:00,78.0,37.0,-100.00,West,266,8.0,14.0,23,0.00,,,0.00,1025.000000,,2013-06-04 21:33:00,
2013-06-04 14:42:00,78.0,37.0,-100.00,West,266,8.0,14.0,23,0.00,,,0.00,1025.000000,,2013-06-04 21:42:00,
2013-06-04 14:52:00,78.0,37.0,-100.00,West,266,8.0,14.0,23,0.00,,,0.00,1025.000000,,2013-06-04 21:52:00,
2013-06-04 15:22:00,82.0,34.0,-100.00,North,9,5.0,15.0,18,0.00,,,0.00,989.000000,,2013-06-04 22:22:00,
2013-06-04 15:32:00,82.0,34.0,-100.00,North,9,5.0,15.0,18,0.00,,,0.00,989.000000,,2013-06-04 22:32:00,
2013-06-04 15:42:00,82.0,34.0,-100.00,North,9,5.0,15.0,18,0.00,,,0.00,989.000000,,2013-06-04 22:42:00,
2013-06-04 15:52:00,82.0,34.0,-100.00,North,9,5.0,15.0,18,0.00,,,0.00,989.000000,,2013-06-04 22:52:00,
2013-06-04 16:22:00,83.0,38.0,-100.00,WSW,258,7.0,13.0,20,0.00,,,0.00,898.000000,,2013-06-04 23:22:00,
2013-06-04 16:32:00,83.0,38.0,-100.00,WSW,258,7.0,13.0,20,0.00,,,0.00,898.000000,,2013-06-04 23:32:00,
2013-06-04 16:42:00,83.0,38.0,-100.00,WSW,258,7.0,13.0,20,0.00,,,0.00,898.000000,,2013-06-04 23:42:00,
2013-06-04 16:52:00,83.0,38.0,-100.00,WSW,258,7.0,13.0,20,0.00,,,0.00,898.000000,,2013-06-04 23:52:00,
2013-06-04 17:22:00,83.0,38.0,-100.00,WSW,257,7.0,13.0,20,0.00,,,-99.99,757.000000,,2013-06-05 00:22:00,
2013-06-04 17:32:00,83.0,38.0,-100.00,WSW,257,7.0,13.0,20,0.00,,,-99.99,757.000000,,2013-06-05 00:32:00,
2013-06-04 17:42:00,83.0,38.0,-100.00,WSW,257,7.0,13.0,20,0.00,,,-99.99,757.000000,,2013-06-05 00:42:00,
2013-06-04 17:52:00,83.0,38.0,-100.00,WSW,257,7.0,13.0,20,0.00,,,-99.99,757.000000,,2013-06-05 00:52:00,
2013-06-04 18:22:00,83.0,40.0,-100.00,West,271,5.0,9.0,22,0.00,,,0.00,580.000000,,2013-06-05 01:22:00,
2013-06-04 18:32:00,83.0,40.0,-100.00,West,271,5.0,9.0,22,0.00,,,0.00,580.000000,,2013-06-05 01:32:00,
2013-06-04 18:42:00,83.0,40.0,-100.00,West,271,5.0,9.0,22,0.00,,,0.00,580.000000,,2013-06-05 01:42:00,
2013-06-04 18:52:00,83.0,40.0,-100.00,West,271,5.0,9.0,22,0.00,,,0.00,580.000000,,2013-06-05 01:52:00,
2013-06-04 19:22:00,80.0,43.0,-100.00,WSW,258,8.0,15.0,27,0.00,,,0.00,385.000000,,2013-06-05 02:22:00,
2013-06-04 19:32:00,80.0,43.0,-100.00,WSW,258,8.0,15.0,27,0.00,,,0.00,385.000000,,2013-06-05 02:32:00,
2013-06-04 19:42:00,80.0,43.0,-100.00,WSW,258,8.0,15.0,27,0.00,,,0.00,385.000000,,2013-06-05 02:42:00,
2013-06-04 19:52:00,80.0,43.0,-100.00,WSW,258,8.0,15.0,27,0.00,,,0.00,385.000000,,2013-06-05 02:52:00,
2013-06-04 20:22:00,77.0,46.0,-100.00,WNW,284,7.0,15.0,34,0.00,,,0.00,195.000000,,2013-06-05 03:22:00,
2013-06-04 20:33:00,77.0,46.0,-100.00,WNW,284,7.0,15.0,34,0.00,,,0.00,195.000000,,2013-06-05 03:33:00,
2013-06-04 20:43:00,77.0,46.0,-100.00,WNW,284,7.0,15.0,34,0.00,,,0.00,195.000000,,2013-06-05 03:43:00,
2013-06-04 20:53:00,77.0,46.0,-100.00,WNW,284,7.0,15.0,34,0.00,,,0.00,195.000000,,2013-06-05 03:53:00,
2013-06-04 21:22:00,70.0,46.0,-100.00,NW,314,6.0,9.0,43,0.00,,,0.00,37.000000,,2013-06-05 04:22:00,
2013-06-04 21:33:00,70.0,46.0,-100.00,NW,314,6.0,9.0,43,0.00,,,0.00,37.000000,,2013-06-05 04:33:00,
2013-06-04 21:42:00,70.0,46.0,-100.00,NW,314,6.0,9.0,43,0.00,,,0.00,37.000000,,2013-06-05 04:42:00,
2013-06-04 21:53:00,70.0,46.0,-100.00,NW,314,6.0,9.0,43,0.00,,,0.00,37.000000,,2013-06-05 04:53:00,
2013-06-04 22:22:00,67.0,47.0,-100.00,ENE,61,3.0,8.0,49,0.00,,,0.00,1.000000,,2013-06-05 05:22:00,
2013-06-04 22:32:00,67.0,47.0,-100.00,ENE,61,3.0,8.0,49,0.00,,,0.00,1.000000,,2013-06-05 05:32:00,
2013-06-04 22:42:00,67.0,47.0,-100.00,ENE,61,3.0,8.0,49,0.00,,,0.00,1.000000,,2013-06-05 05:42:00,
2013-06-04 22:52:00,67.0,47.0,-100.00,ENE,61,3.0,8.0,49,0.00,,,0.00,1.000000,,2013-06-05 05:52:00,
2013-06-04 23:22:00,66.0,42.0,-100.00,NNE,26,5.0,10.0,42,0.00,,,0.00,1.000000,,2013-06-05 06:22:00,
2013-06-04 23:32:00,66.0,42.0,-100.00,NNE,26,5.0,10.0,42,0.00,,,0.00,1.000000,,2013-06-05 06:32:00,
2013-06-04 23:42:00,66.0,42.0,-100.00,NNE,26,5.0,10.0,42,0.00,,,0.00,1.000000,,2013-06-05 06:42:00,
2013-06-04 23:52:00,66.0,42.0,-100.00,NNE,26,5.0,10.0,42,0.00,,,0.00,1.000000,,2013-06-05 06:52:00,